sensor_id;sensor_type;location;lat;lon;timestamp;temperature;humidity
27072;DHT22;14613;46.308;25.288;2022-12-18T00:00:46;6.60;91.10
27072;DHT22;14613;46.308;25.288;2022-12-18T00:03:13;6.60;91.10
27072;DHT22;14613;46.308;25.288;2022-12-18T00:05:49;6.50;91.10
27072;DHT22;14613;46.308;25.288;2022-12-18T00:08:15;6.50;91.10
27072;DHT22;14613;46.308;25.288;2022-12-18T00:10:41;6.50;91.10
27072;DHT22;14613;46.308;25.288;2022-12-18T00:13:07;6.40;91.10
27072;DHT22;14613;46.308;25.288;2022-12-18T00:15:37;6.40;91.20
27072;DHT22;14613;46.308;25.288;2022-12-18T00:18:03;6.40;91.20
27072;DHT22;14613;46.308;25.288;2022-12-18T00:20:29;6.40;91.20
27072;DHT22;14613;46.308;25.288;2022-12-18T00:22:55;6.40;91.20
27072;DHT22;14613;46.308;25.288;2022-12-18T00:25:21;6.30;91.20
27072;DHT22;14613;46.308;25.288;2022-12-18T00:27:48;6.30;91.10
27072;DHT22;14613;46.308;25.288;2022-12-18T00:30:14;6.30;91.10
27072;DHT22;14613;46.308;25.288;2022-12-18T00:32:40;6.30;91.10
27072;DHT22;14613;46.308;25.288;2022-12-18T00:35:07;6.30;91.00
27072;DHT22;14613;46.308;25.288;2022-12-18T00:37:35;6.30;91.10
27072;DHT22;14613;46.308;25.288;2022-12-18T00:40:02;6.30;91.10
27072;DHT22;14613;46.308;25.288;2022-12-18T00:42:28;6.30;91.40
27072;DHT22;14613;46.308;25.288;2022-12-18T00:45:12;6.30;91.00
27072;DHT22;14613;46.308;25.288;2022-12-18T00:47:38;6.30;91.00
27072;DHT22;14613;46.308;25.288;2022-12-18T00:50:04;6.30;91.00
27072;DHT22;14613;46.308;25.288;2022-12-18T00:52:30;6.20;91.00
27072;DHT22;14613;46.308;25.288;2022-12-18T00:54:55;6.20;91.00
27072;DHT22;14613;46.308;25.288;2022-12-18T00:57:21;6.20;91.00
27072;DHT22;14613;46.308;25.288;2022-12-18T00:59:47;6.10;91.00
27072;DHT22;14613;46.308;25.288;2022-12-18T01:02:13;6.10;91.00
27072;DHT22;14613;46.308;25.288;2022-12-18T01:04:39;6.00;91.10
27072;DHT22;14613;46.308;25.288;2022-12-18T01:07:05;6.00;91.10
27072;DHT22;14613;46.308;25.288;2022-12-18T01:09:30;6.00;91.00
27072;DHT22;14613;46.308;25.288;2022-12-18T01:11:56;6.00;91.10
27072;DHT22;14613;46.308;25.288;2022-12-18T01:14:22;6.00;91.40
27072;DHT22;14613;46.308;25.288;2022-12-18T01:16:47;5.90;91.00
27072;DHT22;14613;46.308;25.288;2022-12-18T01:19:13;5.90;91.00
27072;DHT22;14613;46.308;25.288;2022-12-18T01:21:39;5.80;91.10
27072;DHT22;14613;46.308;25.288;2022-12-18T01:24:05;5.80;91.10
27072;DHT22;14613;46.308;25.288;2022-12-18T01:26:31;5.80;91.10
27072;DHT22;14613;46.308;25.288;2022-12-18T01:28:57;5.70;91.10
27072;DHT22;14613;46.308;25.288;2022-12-18T01:33:50;5.70;91.20
27072;DHT22;14613;46.308;25.288;2022-12-18T01:36:24;5.60;91.20
27072;DHT22;14613;46.308;25.288;2022-12-18T01:38:51;5.60;91.20
27072;DHT22;14613;46.308;25.288;2022-12-18T01:41:20;5.60;91.20
27072;DHT22;14613;46.308;25.288;2022-12-18T01:43:57;5.60;91.20
27072;DHT22;14613;46.308;25.288;2022-12-18T01:46:24;5.60;91.20
27072;DHT22;14613;46.308;25.288;2022-12-18T01:49:08;5.60;91.20
27072;DHT22;14613;46.308;25.288;2022-12-18T01:51:33;5.60;91.20
27072;DHT22;14613;46.308;25.288;2022-12-18T01:53:59;5.50;91.20
27072;DHT22;14613;46.308;25.288;2022-12-18T01:56:25;5.50;91.20
27072;DHT22;14613;46.308;25.288;2022-12-18T01:59:03;5.40;91.20
27072;DHT22;14613;46.308;25.288;2022-12-18T02:01:31;5.40;91.30
27072;DHT22;14613;46.308;25.288;2022-12-18T02:04:21;5.40;91.30
27072;DHT22;14613;46.308;25.288;2022-12-18T02:06:51;5.40;91.20
27072;DHT22;14613;46.308;25.288;2022-12-18T02:09:22;5.40;91.20
27072;DHT22;14613;46.308;25.288;2022-12-18T02:12:19;5.40;91.20
27072;DHT22;14613;46.308;25.288;2022-12-18T02:14:55;5.40;91.20
27072;DHT22;14613;46.308;25.288;2022-12-18T02:17:50;5.30;91.20
27072;DHT22;14613;46.308;25.288;2022-12-18T02:20:21;5.30;91.20
27072;DHT22;14613;46.308;25.288;2022-12-18T02:23:06;5.30;91.20
27072;DHT22;14613;46.308;25.288;2022-12-18T02:28:21;5.20;91.30
27072;DHT22;14613;46.308;25.288;2022-12-18T02:30:49;5.20;91.30
27072;DHT22;14613;46.308;25.288;2022-12-18T02:33:17;5.20;91.30
27072;DHT22;14613;46.308;25.288;2022-12-18T02:35:45;5.10;91.20
27072;DHT22;14613;46.308;25.288;2022-12-18T02:38:12;5.10;91.30
27072;DHT22;14613;46.308;25.288;2022-12-18T02:40:39;5.10;91.30
27072;DHT22;14613;46.308;25.288;2022-12-18T02:43:11;5.10;91.30
27072;DHT22;14613;46.308;25.288;2022-12-18T02:45:50;5.10;91.30
27072;DHT22;14613;46.308;25.288;2022-12-18T02:48:26;5.10;91.30
27072;DHT22;14613;46.308;25.288;2022-12-18T02:51:16;5.10;91.30
27072;DHT22;14613;46.308;25.288;2022-12-18T02:53:51;5.10;91.30
27072;DHT22;14613;46.308;25.288;2022-12-18T02:56:35;5.10;91.20
27072;DHT22;14613;46.308;25.288;2022-12-18T02:59:15;5.10;91.20
27072;DHT22;14613;46.308;25.288;2022-12-18T03:04:49;5.10;91.10
27072;DHT22;14613;46.308;25.288;2022-12-18T03:07:29;5.10;91.00
27072;DHT22;14613;46.308;25.288;2022-12-18T03:10:00;5.10;91.00
27072;DHT22;14613;46.308;25.288;2022-12-18T03:12:38;5.10;91.00
27072;DHT22;14613;46.308;25.288;2022-12-18T03:17:40;5.10;91.00
27072;DHT22;14613;46.308;25.288;2022-12-18T03:20:13;5.10;91.00
27072;DHT22;14613;46.308;25.288;2022-12-18T03:22:42;5.00;90.90
27072;DHT22;14613;46.308;25.288;2022-12-18T03:25:12;5.00;90.90
27072;DHT22;14613;46.308;25.288;2022-12-18T03:27:46;5.00;90.90
27072;DHT22;14613;46.308;25.288;2022-12-18T03:30:14;5.00;90.90
27072;DHT22;14613;46.308;25.288;2022-12-18T03:32:58;4.90;90.80
27072;DHT22;14613;46.308;25.288;2022-12-18T03:35:33;4.90;90.90
27072;DHT22;14613;46.308;25.288;2022-12-18T03:38:00;4.90;90.90
27072;DHT22;14613;46.308;25.288;2022-12-18T03:40:50;4.90;90.90
27072;DHT22;14613;46.308;25.288;2022-12-18T03:46:27;4.90;90.70
27072;DHT22;14613;46.308;25.288;2022-12-18T03:49:18;4.90;90.70
27072;DHT22;14613;46.308;25.288;2022-12-18T03:54:26;4.80;90.60
27072;DHT22;14613;46.308;25.288;2022-12-18T03:57:03;4.80;90.60
27072;DHT22;14613;46.308;25.288;2022-12-18T03:59:31;4.80;90.60
27072;DHT22;14613;46.308;25.288;2022-12-18T04:01:59;4.80;90.60
27072;DHT22;14613;46.308;25.288;2022-12-18T04:04:27;4.80;90.60
27072;DHT22;14613;46.308;25.288;2022-12-18T04:06:55;4.80;90.60
27072;DHT22;14613;46.308;25.288;2022-12-18T04:09:21;4.70;90.50
27072;DHT22;14613;46.308;25.288;2022-12-18T04:11:47;4.70;90.50
27072;DHT22;14613;46.308;25.288;2022-12-18T04:14:13;4.70;90.50
27072;DHT22;14613;46.308;25.288;2022-12-18T04:16:39;4.70;90.50
27072;DHT22;14613;46.308;25.288;2022-12-18T04:19:05;4.70;90.60
27072;DHT22;14613;46.308;25.288;2022-12-18T04:21:31;4.70;90.60
27072;DHT22;14613;46.308;25.288;2022-12-18T04:23:56;4.70;90.60
27072;DHT22;14613;46.308;25.288;2022-12-18T04:26:22;4.70;90.50
27072;DHT22;14613;46.308;25.288;2022-12-18T04:28:48;4.70;90.50
27072;DHT22;14613;46.308;25.288;2022-12-18T04:31:13;4.70;90.50
27072;DHT22;14613;46.308;25.288;2022-12-18T04:33:39;4.80;90.40
27072;DHT22;14613;46.308;25.288;2022-12-18T04:36:05;4.80;90.40
27072;DHT22;14613;46.308;25.288;2022-12-18T04:38:31;4.80;90.30
27072;DHT22;14613;46.308;25.288;2022-12-18T04:40:57;4.70;90.30
27072;DHT22;14613;46.308;25.288;2022-12-18T04:43:22;4.70;90.30
27072;DHT22;14613;46.308;25.288;2022-12-18T04:45:48;4.70;90.40
27072;DHT22;14613;46.308;25.288;2022-12-18T04:48:14;4.70;90.30
27072;DHT22;14613;46.308;25.288;2022-12-18T04:50:40;4.70;90.30
27072;DHT22;14613;46.308;25.288;2022-12-18T04:53:05;4.70;90.30
27072;DHT22;14613;46.308;25.288;2022-12-18T04:55:31;4.70;90.30
27072;DHT22;14613;46.308;25.288;2022-12-18T04:57:57;4.70;90.30
27072;DHT22;14613;46.308;25.288;2022-12-18T05:00:22;4.60;90.30
27072;DHT22;14613;46.308;25.288;2022-12-18T05:02:48;4.60;90.30
27072;DHT22;14613;46.308;25.288;2022-12-18T05:05:14;4.60;90.30
27072;DHT22;14613;46.308;25.288;2022-12-18T05:07:40;4.70;90.40
27072;DHT22;14613;46.308;25.288;2022-12-18T05:10:06;4.70;90.30
27072;DHT22;14613;46.308;25.288;2022-12-18T05:12:32;4.60;90.20
27072;DHT22;14613;46.308;25.288;2022-12-18T05:14:57;4.60;90.20
27072;DHT22;14613;46.308;25.288;2022-12-18T05:17:23;4.60;90.20
27072;DHT22;14613;46.308;25.288;2022-12-18T05:19:49;4.60;90.30
27072;DHT22;14613;46.308;25.288;2022-12-18T05:22:15;4.60;90.30
27072;DHT22;14613;46.308;25.288;2022-12-18T05:24:41;4.60;90.20
27072;DHT22;14613;46.308;25.288;2022-12-18T05:27:07;4.60;90.20
27072;DHT22;14613;46.308;25.288;2022-12-18T05:29:32;4.60;90.10
27072;DHT22;14613;46.308;25.288;2022-12-18T05:31:58;4.60;90.00
27072;DHT22;14613;46.308;25.288;2022-12-18T05:34:24;4.60;90.00
27072;DHT22;14613;46.308;25.288;2022-12-18T05:36:49;4.50;90.00
27072;DHT22;14613;46.308;25.288;2022-12-18T05:39:15;4.60;90.00
27072;DHT22;14613;46.308;25.288;2022-12-18T05:41:41;4.60;90.00
27072;DHT22;14613;46.308;25.288;2022-12-18T05:44:07;4.60;90.00
27072;DHT22;14613;46.308;25.288;2022-12-18T05:46:33;4.60;90.00
27072;DHT22;14613;46.308;25.288;2022-12-18T05:49:02;4.60;89.90
27072;DHT22;14613;46.308;25.288;2022-12-18T05:51:27;4.60;89.70
27072;DHT22;14613;46.308;25.288;2022-12-18T05:53:53;4.60;89.60
27072;DHT22;14613;46.308;25.288;2022-12-18T05:56:21;4.60;89.70
27072;DHT22;14613;46.308;25.288;2022-12-18T05:58:47;4.60;89.60
27072;DHT22;14613;46.308;25.288;2022-12-18T06:01:25;4.50;89.70
27072;DHT22;14613;46.308;25.288;2022-12-18T06:03:51;4.50;89.70
27072;DHT22;14613;46.308;25.288;2022-12-18T06:06:20;4.40;89.60
27072;DHT22;14613;46.308;25.288;2022-12-18T06:08:46;4.40;89.70
27072;DHT22;14613;46.308;25.288;2022-12-18T06:11:12;4.40;89.70
27072;DHT22;14613;46.308;25.288;2022-12-18T06:13:38;4.40;89.70
27072;DHT22;14613;46.308;25.288;2022-12-18T06:16:05;4.40;89.70
27072;DHT22;14613;46.308;25.288;2022-12-18T06:18:31;4.30;89.70
27072;DHT22;14613;46.308;25.288;2022-12-18T06:20:58;4.30;89.70
27072;DHT22;14613;46.308;25.288;2022-12-18T06:23:24;4.30;89.70
27072;DHT22;14613;46.308;25.288;2022-12-18T06:25:50;4.30;89.70
27072;DHT22;14613;46.308;25.288;2022-12-18T06:28:16;4.30;89.60
27072;DHT22;14613;46.308;25.288;2022-12-18T06:30:46;4.30;89.70
27072;DHT22;14613;46.308;25.288;2022-12-18T06:33:13;4.20;89.60
27072;DHT22;14613;46.308;25.288;2022-12-18T06:35:40;4.20;89.60
27072;DHT22;14613;46.308;25.288;2022-12-18T06:38:05;4.20;89.60
27072;DHT22;14613;46.308;25.288;2022-12-18T06:40:31;4.20;89.60
27072;DHT22;14613;46.308;25.288;2022-12-18T06:42:57;4.20;89.60
27072;DHT22;14613;46.308;25.288;2022-12-18T06:45:23;4.30;89.60
27072;DHT22;14613;46.308;25.288;2022-12-18T06:47:49;4.30;90.20
27072;DHT22;14613;46.308;25.288;2022-12-18T06:50:15;4.30;89.50
27072;DHT22;14613;46.308;25.288;2022-12-18T06:52:41;4.30;89.40
27072;DHT22;14613;46.308;25.288;2022-12-18T06:55:08;4.30;89.40
27072;DHT22;14613;46.308;25.288;2022-12-18T06:57:34;4.30;89.40
27072;DHT22;14613;46.308;25.288;2022-12-18T07:00:00;4.30;89.40
27072;DHT22;14613;46.308;25.288;2022-12-18T07:02:25;4.30;89.40
27072;DHT22;14613;46.308;25.288;2022-12-18T07:04:51;4.40;89.40
27072;DHT22;14613;46.308;25.288;2022-12-18T07:07:17;4.40;89.40
27072;DHT22;14613;46.308;25.288;2022-12-18T07:09:43;4.40;89.30
27072;DHT22;14613;46.308;25.288;2022-12-18T07:12:08;4.40;89.30
27072;DHT22;14613;46.308;25.288;2022-12-18T07:14:34;4.50;89.20
27072;DHT22;14613;46.308;25.288;2022-12-18T07:17:00;4.50;89.10
27072;DHT22;14613;46.308;25.288;2022-12-18T07:19:25;4.60;89.10
27072;DHT22;14613;46.308;25.288;2022-12-18T07:21:51;4.60;89.00
27072;DHT22;14613;46.308;25.288;2022-12-18T07:24:17;4.60;89.00
27072;DHT22;14613;46.308;25.288;2022-12-18T07:26:46;4.60;89.00
27072;DHT22;14613;46.308;25.288;2022-12-18T07:29:12;4.60;89.00
27072;DHT22;14613;46.308;25.288;2022-12-18T07:31:38;4.60;88.90
27072;DHT22;14613;46.308;25.288;2022-12-18T07:34:04;4.60;89.00
27072;DHT22;14613;46.308;25.288;2022-12-18T07:36:30;4.70;89.00
27072;DHT22;14613;46.308;25.288;2022-12-18T07:38:55;4.70;88.80
27072;DHT22;14613;46.308;25.288;2022-12-18T07:41:21;4.80;88.80
27072;DHT22;14613;46.308;25.288;2022-12-18T07:43:48;4.80;88.80
27072;DHT22;14613;46.308;25.288;2022-12-18T07:46:15;4.80;88.70
27072;DHT22;14613;46.308;25.288;2022-12-18T07:48:42;4.90;88.80
27072;DHT22;14613;46.308;25.288;2022-12-18T07:51:08;4.90;88.70
27072;DHT22;14613;46.308;25.288;2022-12-18T07:53:39;4.90;88.60
27072;DHT22;14613;46.308;25.288;2022-12-18T07:56:08;4.90;88.60
27072;DHT22;14613;46.308;25.288;2022-12-18T07:58:35;4.90;88.60
27072;DHT22;14613;46.308;25.288;2022-12-18T08:01:09;4.90;88.60
27072;DHT22;14613;46.308;25.288;2022-12-18T08:03:35;5.00;88.60
27072;DHT22;14613;46.308;25.288;2022-12-18T08:06:02;5.00;88.60
27072;DHT22;14613;46.308;25.288;2022-12-18T08:08:28;5.00;88.40
27072;DHT22;14613;46.308;25.288;2022-12-18T08:10:55;5.10;88.40
27072;DHT22;14613;46.308;25.288;2022-12-18T08:13:21;5.10;88.30
27072;DHT22;14613;46.308;25.288;2022-12-18T08:15:54;5.10;88.20
27072;DHT22;14613;46.308;25.288;2022-12-18T08:18:20;5.10;88.20
27072;DHT22;14613;46.308;25.288;2022-12-18T08:20:46;5.00;88.10
27072;DHT22;14613;46.308;25.288;2022-12-18T08:23:11;5.10;88.20
27072;DHT22;14613;46.308;25.288;2022-12-18T08:25:37;5.00;88.10
27072;DHT22;14613;46.308;25.288;2022-12-18T08:28:03;5.10;88.20
27072;DHT22;14613;46.308;25.288;2022-12-18T08:30:28;5.10;88.00
27072;DHT22;14613;46.308;25.288;2022-12-18T08:32:54;5.10;88.00
27072;DHT22;14613;46.308;25.288;2022-12-18T08:35:20;5.00;88.00
27072;DHT22;14613;46.308;25.288;2022-12-18T08:37:46;5.00;88.00
27072;DHT22;14613;46.308;25.288;2022-12-18T08:40:12;5.00;88.00
27072;DHT22;14613;46.308;25.288;2022-12-18T08:42:38;5.00;88.10
27072;DHT22;14613;46.308;25.288;2022-12-18T08:45:22;5.00;88.10
27072;DHT22;14613;46.308;25.288;2022-12-18T08:47:48;5.00;88.10
27072;DHT22;14613;46.308;25.288;2022-12-18T08:50:13;5.10;88.00
27072;DHT22;14613;46.308;25.288;2022-12-18T08:52:40;5.10;88.00
27072;DHT22;14613;46.308;25.288;2022-12-18T08:55:06;5.10;87.80
27072;DHT22;14613;46.308;25.288;2022-12-18T08:57:32;5.10;87.70
27072;DHT22;14613;46.308;25.288;2022-12-18T08:59:58;5.10;87.70
27072;DHT22;14613;46.308;25.288;2022-12-18T09:02:24;5.10;87.70
27072;DHT22;14613;46.308;25.288;2022-12-18T09:04:50;5.10;87.50
27072;DHT22;14613;46.308;25.288;2022-12-18T09:07:16;5.10;87.50
27072;DHT22;14613;46.308;25.288;2022-12-18T09:09:41;5.10;87.40
27072;DHT22;14613;46.308;25.288;2022-12-18T09:12:07;5.10;87.50
27072;DHT22;14613;46.308;25.288;2022-12-18T09:14:33;5.10;87.50
27072;DHT22;14613;46.308;25.288;2022-12-18T09:16:58;5.20;87.50
27072;DHT22;14613;46.308;25.288;2022-12-18T09:19:24;5.20;87.40
27072;DHT22;14613;46.308;25.288;2022-12-18T09:21:50;5.20;87.10
27072;DHT22;14613;46.308;25.288;2022-12-18T09:24:16;5.20;87.00
27072;DHT22;14613;46.308;25.288;2022-12-18T09:26:42;5.20;86.90
27072;DHT22;14613;46.308;25.288;2022-12-18T09:29:08;5.20;86.90
27072;DHT22;14613;46.308;25.288;2022-12-18T09:31:35;5.20;87.00
27072;DHT22;14613;46.308;25.288;2022-12-18T09:34:01;5.20;87.10
27072;DHT22;14613;46.308;25.288;2022-12-18T09:36:27;5.20;86.80
27072;DHT22;14613;46.308;25.288;2022-12-18T09:38:52;5.20;86.80
27072;DHT22;14613;46.308;25.288;2022-12-18T09:41:37;5.30;86.60
27072;DHT22;14613;46.308;25.288;2022-12-18T09:49:40;5.30;86.60
27072;DHT22;14613;46.308;25.288;2022-12-18T09:52:30;5.30;86.60
27072;DHT22;14613;46.308;25.288;2022-12-18T09:57:31;5.30;86.60
27072;DHT22;14613;46.308;25.288;2022-12-18T10:00:23;5.30;86.60
27072;DHT22;14613;46.308;25.288;2022-12-18T10:02:48;5.30;86.50
27072;DHT22;14613;46.308;25.288;2022-12-18T10:05:20;5.40;86.50
27072;DHT22;14613;46.308;25.288;2022-12-18T10:08:10;5.40;86.30
27072;DHT22;14613;46.308;25.288;2022-12-18T10:21:47;5.60;86.00
27072;DHT22;14613;46.308;25.288;2022-12-18T10:27:15;5.60;85.70
27072;DHT22;14613;46.308;25.288;2022-12-18T10:29:43;5.60;85.40
27072;DHT22;14613;46.308;25.288;2022-12-18T10:32:22;5.60;85.40
27072;DHT22;14613;46.308;25.288;2022-12-18T10:34:49;5.50;85.40
27072;DHT22;14613;46.308;25.288;2022-12-18T10:37:21;5.50;86.20
27072;DHT22;14613;46.308;25.288;2022-12-18T10:40:12;5.50;85.10
27072;DHT22;14613;46.308;25.288;2022-12-18T10:42:39;5.40;84.80
27072;DHT22;14613;46.308;25.288;2022-12-18T10:45:16;5.40;84.70
27072;DHT22;14613;46.308;25.288;2022-12-18T10:47:46;5.30;84.60
27072;DHT22;14613;46.308;25.288;2022-12-18T10:50:28;5.30;85.00
27072;DHT22;14613;46.308;25.288;2022-12-18T10:52:56;5.30;85.20
27072;DHT22;14613;46.308;25.288;2022-12-18T10:55:22;5.40;85.30
27072;DHT22;14613;46.308;25.288;2022-12-18T10:57:49;5.40;85.40
27072;DHT22;14613;46.308;25.288;2022-12-18T11:00:24;5.50;85.30
27072;DHT22;14613;46.308;25.288;2022-12-18T11:02:51;5.50;85.00
27072;DHT22;14613;46.308;25.288;2022-12-18T11:07:53;5.40;84.80
27072;DHT22;14613;46.308;25.288;2022-12-18T11:10:32;5.40;84.80
27072;DHT22;14613;46.308;25.288;2022-12-18T11:13:17;5.40;84.60
27072;DHT22;14613;46.308;25.288;2022-12-18T11:15:44;5.40;84.60
27072;DHT22;14613;46.308;25.288;2022-12-18T11:18:29;5.40;84.80
27072;DHT22;14613;46.308;25.288;2022-12-18T11:21:05;5.40;84.80
27072;DHT22;14613;46.308;25.288;2022-12-18T11:23:31;5.40;84.60
27072;DHT22;14613;46.308;25.288;2022-12-18T11:25:59;5.40;84.40
27072;DHT22;14613;46.308;25.288;2022-12-18T11:28:41;5.50;84.60
27072;DHT22;14613;46.308;25.288;2022-12-18T11:33:44;5.60;84.50
27072;DHT22;14613;46.308;25.288;2022-12-18T11:36:12;5.60;84.30
27072;DHT22;14613;46.308;25.288;2022-12-18T11:38:40;5.60;84.30
27072;DHT22;14613;46.308;25.288;2022-12-18T11:44:35;5.70;84.20
27072;DHT22;14613;46.308;25.288;2022-12-18T11:47:10;5.70;84.00
27072;DHT22;14613;46.308;25.288;2022-12-18T11:49:40;5.80;84.00
27072;DHT22;14613;46.308;25.288;2022-12-18T11:52:19;5.80;83.90
27072;DHT22;14613;46.308;25.288;2022-12-18T11:54:53;5.80;83.60
27072;DHT22;14613;46.308;25.288;2022-12-18T12:00:25;5.70;83.60
27072;DHT22;14613;46.308;25.288;2022-12-18T12:03:18;5.80;83.50
27072;DHT22;14613;46.308;25.288;2022-12-18T12:06:42;5.70;83.40
27072;DHT22;14613;46.308;25.288;2022-12-18T12:09:20;5.80;83.60
27072;DHT22;14613;46.308;25.288;2022-12-18T12:11:55;5.80;83.50
27072;DHT22;14613;46.308;25.288;2022-12-18T12:20:08;5.80;83.10
27072;DHT22;14613;46.308;25.288;2022-12-18T12:32:13;5.70;83.00
27072;DHT22;14613;46.308;25.288;2022-12-18T12:40:28;5.70;82.60
27072;DHT22;14613;46.308;25.288;2022-12-18T12:43:12;5.70;82.50
27072;DHT22;14613;46.308;25.288;2022-12-18T12:45:44;5.60;82.60
27072;DHT22;14613;46.308;25.288;2022-12-18T12:51:13;5.60;82.90
27072;DHT22;14613;46.308;25.288;2022-12-18T12:53:41;5.60;82.80
27072;DHT22;14613;46.308;25.288;2022-12-18T12:56:10;5.60;82.90
27072;DHT22;14613;46.308;25.288;2022-12-18T13:04:23;5.70;82.80
27072;DHT22;14613;46.308;25.288;2022-12-18T13:07:18;5.70;82.80
27072;DHT22;14613;46.308;25.288;2022-12-18T13:15:47;5.70;82.70
27072;DHT22;14613;46.308;25.288;2022-12-18T13:18:21;5.60;82.60
27072;DHT22;14613;46.308;25.288;2022-12-18T13:21:03;5.60;82.60
27072;DHT22;14613;46.308;25.288;2022-12-18T13:23:37;5.50;82.60
27072;DHT22;14613;46.308;25.288;2022-12-18T13:34:25;5.40;82.80
27072;DHT22;14613;46.308;25.288;2022-12-18T13:36:52;5.30;82.70
27072;DHT22;14613;46.308;25.288;2022-12-18T13:41:45;5.30;82.80
27072;DHT22;14613;46.308;25.288;2022-12-18T13:44:33;5.30;82.80
27072;DHT22;14613;46.308;25.288;2022-12-18T13:47:02;5.20;82.80
27072;DHT22;14613;46.308;25.288;2022-12-18T13:49:43;5.20;82.80
27072;DHT22;14613;46.308;25.288;2022-12-18T13:52:24;5.20;82.80
27072;DHT22;14613;46.308;25.288;2022-12-18T13:54:53;5.20;82.80
27072;DHT22;14613;46.308;25.288;2022-12-18T13:59:57;5.10;82.90
27072;DHT22;14613;46.308;25.288;2022-12-18T14:02:25;5.10;83.00
27072;DHT22;14613;46.308;25.288;2022-12-18T14:04:52;5.10;83.10
27072;DHT22;14613;46.308;25.288;2022-12-18T14:07:23;5.00;83.00
27072;DHT22;14613;46.308;25.288;2022-12-18T14:09:52;5.00;83.00
27072;DHT22;14613;46.308;25.288;2022-12-18T14:15:30;5.00;83.00
27072;DHT22;14613;46.308;25.288;2022-12-18T14:18:02;5.00;83.00
27072;DHT22;14613;46.308;25.288;2022-12-18T14:20:32;4.90;83.00
27072;DHT22;14613;46.308;25.288;2022-12-18T14:22:58;4.90;83.00
27072;DHT22;14613;46.308;25.288;2022-12-18T14:25:29;4.80;82.90
27072;DHT22;14613;46.308;25.288;2022-12-18T14:30:37;4.80;82.90
27072;DHT22;14613;46.308;25.288;2022-12-18T14:33:29;4.80;83.10
27072;DHT22;14613;46.308;25.288;2022-12-18T14:36:04;4.80;82.90
27072;DHT22;14613;46.308;25.288;2022-12-18T14:38:32;4.80;82.90
27072;DHT22;14613;46.308;25.288;2022-12-18T14:41:14;4.80;82.90
27072;DHT22;14613;46.308;25.288;2022-12-18T14:43:42;4.80;83.10
27072;DHT22;14613;46.308;25.288;2022-12-18T14:48:59;4.70;83.10
27072;DHT22;14613;46.308;25.288;2022-12-18T14:51:27;4.70;83.10
27072;DHT22;14613;46.308;25.288;2022-12-18T14:53:59;4.70;83.10
27072;DHT22;14613;46.308;25.288;2022-12-18T14:56:27;4.70;83.10
27072;DHT22;14613;46.308;25.288;2022-12-18T14:59:25;4.70;83.20
27072;DHT22;14613;46.308;25.288;2022-12-18T15:04:28;4.70;83.20
27072;DHT22;14613;46.308;25.288;2022-12-18T15:07:16;4.70;83.20
27072;DHT22;14613;46.308;25.288;2022-12-18T15:12:37;4.60;83.20
27072;DHT22;14613;46.308;25.288;2022-12-18T15:15:04;4.60;83.20
27072;DHT22;14613;46.308;25.288;2022-12-18T15:17:31;4.60;83.20
27072;DHT22;14613;46.308;25.288;2022-12-18T15:20:09;4.60;83.30
27072;DHT22;14613;46.308;25.288;2022-12-18T15:22:36;4.60;83.20
27072;DHT22;14613;46.308;25.288;2022-12-18T15:25:23;4.60;83.20
27072;DHT22;14613;46.308;25.288;2022-12-18T15:27:52;4.60;83.20
27072;DHT22;14613;46.308;25.288;2022-12-18T15:30:20;4.60;83.20
27072;DHT22;14613;46.308;25.288;2022-12-18T15:32:48;4.50;83.20
27072;DHT22;14613;46.308;25.288;2022-12-18T15:35:25;4.50;83.20
27072;DHT22;14613;46.308;25.288;2022-12-18T15:37:51;4.50;83.30
27072;DHT22;14613;46.308;25.288;2022-12-18T15:40:22;4.50;83.40
27072;DHT22;14613;46.308;25.288;2022-12-18T15:42:52;4.50;83.40
27072;DHT22;14613;46.308;25.288;2022-12-18T15:45:37;4.50;83.30
27072;DHT22;14613;46.308;25.288;2022-12-18T15:48:20;4.50;83.30
27072;DHT22;14613;46.308;25.288;2022-12-18T15:50:46;4.40;83.20
27072;DHT22;14613;46.308;25.288;2022-12-18T15:53:12;4.40;83.40
27072;DHT22;14613;46.308;25.288;2022-12-18T15:55:37;4.40;83.50
27072;DHT22;14613;46.308;25.288;2022-12-18T15:58:21;4.40;83.40
27072;DHT22;14613;46.308;25.288;2022-12-18T16:00:47;4.40;83.40
27072;DHT22;14613;46.308;25.288;2022-12-18T16:03:13;4.40;83.30
27072;DHT22;14613;46.308;25.288;2022-12-18T16:05:39;4.40;83.20
27072;DHT22;14613;46.308;25.288;2022-12-18T16:08:04;4.40;83.20
27072;DHT22;14613;46.308;25.288;2022-12-18T16:10:30;4.40;83.20
27072;DHT22;14613;46.308;25.288;2022-12-18T16:12:56;4.40;83.20
27072;DHT22;14613;46.308;25.288;2022-12-18T16:15:22;4.40;83.30
27072;DHT22;14613;46.308;25.288;2022-12-18T16:17:48;4.30;83.20
27072;DHT22;14613;46.308;25.288;2022-12-18T16:20:19;4.30;83.20
27072;DHT22;14613;46.308;25.288;2022-12-18T16:22:45;4.30;83.40
27072;DHT22;14613;46.308;25.288;2022-12-18T16:25:26;4.30;83.40
27072;DHT22;14613;46.308;25.288;2022-12-18T16:27:53;4.30;83.50
27072;DHT22;14613;46.308;25.288;2022-12-18T16:30:26;4.30;83.50
27072;DHT22;14613;46.308;25.288;2022-12-18T16:32:53;4.40;83.60
27072;DHT22;14613;46.308;25.288;2022-12-18T16:35:19;4.40;83.50
27072;DHT22;14613;46.308;25.288;2022-12-18T16:37:45;4.40;83.50
27072;DHT22;14613;46.308;25.288;2022-12-18T16:40:14;4.40;83.50
27072;DHT22;14613;46.308;25.288;2022-12-18T16:42:41;4.40;83.70
27072;DHT22;14613;46.308;25.288;2022-12-18T16:45:08;4.40;83.50
27072;DHT22;14613;46.308;25.288;2022-12-18T16:47:34;4.40;83.60
27072;DHT22;14613;46.308;25.288;2022-12-18T16:50:00;4.40;83.70
27072;DHT22;14613;46.308;25.288;2022-12-18T16:52:26;4.40;83.70
27072;DHT22;14613;46.308;25.288;2022-12-18T16:54:52;4.40;83.70
27072;DHT22;14613;46.308;25.288;2022-12-18T16:57:19;4.30;83.50
27072;DHT22;14613;46.308;25.288;2022-12-18T16:59:45;4.30;83.50
27072;DHT22;14613;46.308;25.288;2022-12-18T17:02:23;4.30;83.40
27072;DHT22;14613;46.308;25.288;2022-12-18T17:04:52;4.30;83.50
27072;DHT22;14613;46.308;25.288;2022-12-18T17:07:18;4.30;83.40
27072;DHT22;14613;46.308;25.288;2022-12-18T17:09:44;4.30;83.40
27072;DHT22;14613;46.308;25.288;2022-12-18T17:12:09;4.30;83.50
27072;DHT22;14613;46.308;25.288;2022-12-18T17:14:36;4.30;83.50
27072;DHT22;14613;46.308;25.288;2022-12-18T17:17:02;4.30;83.40
27072;DHT22;14613;46.308;25.288;2022-12-18T17:19:28;4.30;83.50
27072;DHT22;14613;46.308;25.288;2022-12-18T17:21:54;4.30;83.70
27072;DHT22;14613;46.308;25.288;2022-12-18T17:24:20;4.20;83.50
27072;DHT22;14613;46.308;25.288;2022-12-18T17:26:47;4.20;83.50
27072;DHT22;14613;46.308;25.288;2022-12-18T17:29:15;4.20;83.40
27072;DHT22;14613;46.308;25.288;2022-12-18T17:31:41;4.20;83.50
27072;DHT22;14613;46.308;25.288;2022-12-18T17:34:09;4.20;83.60
27072;DHT22;14613;46.308;25.288;2022-12-18T17:36:35;4.30;83.60
27072;DHT22;14613;46.308;25.288;2022-12-18T17:39:03;4.30;83.60